Time;durP1;ratioP1;P1;durP2;ratioP2;P2;SDS_P1;SDS_P2;PMS_P1;PMS_P2;Temp;Humidity;BMP_temperature;BMP_pressure;BME280_temperature;BME280_humidity;BME280_pressure;Samples;Min_cycle;Max_cycle;Signal;HPM_P1;HPM_P2
2024/01/15 00:00:06;;;;;;;1999.90;999.90;;;;;;;;;;5073348;28;20045;-84
2024/01/15 00:02:32;;;;;;;1999.90;999.90;;;;;;;;;;5077820;28;20544;-86
2024/01/15 00:04:59;;;;;;;1999.90;999.90;;;;;;;;;;5076880;28;20061;-84
2024/01/15 00:07:26;;;;;;;1999.90;999.90;;;;;;;;;;5076845;28;20043;-85
2024/01/15 00:09:52;;;;;;;1999.90;999.90;;;;;;;;;;5087873;28;20055;-86
2024/01/15 00:12:20;;;;;;;1999.90;999.90;;;;;;;;;;5077012;28;20055;-85
2024/01/15 00:14:47;;;;;;;1999.90;999.90;;;;;;;;;;5078633;28;20139;-85
2024/01/15 00:17:13;;;;;;;1999.90;999.90;;;;;;;;;;5072125;28;20044;-85
2024/01/15 00:19:40;;;;;;;1999.90;999.90;;;;;;;;;;5078560;28;20040;-87
2024/01/15 00:22:06;;;;;;;1999.90;999.90;;;;;;;;;;5076139;28;20135;-88
2024/01/15 00:24:33;;;;;;;1999.90;999.90;;;;;;;;;;5074543;28;20588;-85
2024/01/15 00:26:59;;;;;;;1999.90;999.90;;;;;;;;;;5064853;28;20047;-85
2024/01/15 00:29:27;;;;;;;1999.90;999.90;;;;;;;;;;5075983;28;20041;-87
2024/01/15 00:31:54;;;;;;;1999.90;999.90;;;;;;;;;;5079218;28;20047;-87
2024/01/15 00:34:20;;;;;;;1999.90;999.90;;;;;;;;;;5073198;28;20499;-83
2024/01/15 00:36:47;;;;;;;1999.90;999.90;;;;;;;;;;5074881;28;20055;-85
2024/01/15 00:39:13;;;;;;;1999.90;999.90;;;;;;;;;;5074655;28;20045;-85
2024/01/15 00:41:40;;;;;;;1999.90;999.90;;;;;;;;;;5078781;28;20041;-84
2024/01/15 00:44:07;;;;;;;1999.90;999.90;;;;;;;;;;5067240;28;20127;-87
2024/01/15 00:46:43;;;;;;;1999.90;999.90;;;;;;;;;;5073317;28;20049;-84
2024/01/15 00:49:13;;;;;;;1999.90;999.90;;;;;;;;;;5069545;28;20040;-84
2024/01/15 00:51:40;;;;;;;1999.90;999.90;;;;;;;;;;5089289;28;20049;-86
2024/01/15 00:54:07;;;;;;;1999.90;999.90;;;;;;;;;;5077290;28;20049;-84
2024/01/15 00:56:33;;;;;;;1999.90;999.90;;;;;;;;;;5075485;28;20401;-86
2024/01/15 00:59:01;;;;;;;1999.90;999.90;;;;;;;;;;5068934;28;20504;-85
2024/01/15 01:01:27;;;;;;;1999.90;999.90;;;;;;;;;;5077256;28;20053;-86
2024/01/15 01:03:55;;;;;;;1999.90;999.90;;;;;;;;;;5082371;28;20668;-85
2024/01/15 01:06:22;;;;;;;1999.90;999.90;;;;;;;;;;5068992;28;20052;-87
2024/01/15 01:08:48;;;;;;;1999.90;999.90;;;;;;;;;;5076848;28;20036;-87
2024/01/15 01:11:16;;;;;;;1999.90;999.90;;;;;;;;;;5068201;28;20056;-84
2024/01/15 01:13:42;;;;;;;1999.90;999.90;;;;;;;;;;5077928;28;20044;-84
2024/01/15 01:16:09;;;;;;;1999.90;999.90;;;;;;;;;;5071990;28;20054;-85
2024/01/15 01:18:36;;;;;;;1999.90;999.90;;;;;;;;;;5073706;28;20477;-85
2024/01/15 01:21:07;;;;;;;1999.90;999.90;;;;;;;;;;5070530;28;20049;-85
2024/01/15 01:23:33;;;;;;;1999.90;999.90;;;;;;;;;;5079302;28;20051;-85
2024/01/15 01:26:00;;;;;;;1999.90;999.90;;;;;;;;;;5065827;28;20044;-84
2024/01/15 01:28:26;;;;;;;1999.90;999.90;;;;;;;;;;5078357;28;20044;-85
2024/01/15 01:30:53;;;;;;;1999.90;999.90;;;;;;;;;;5094098;28;20061;-90
2024/01/15 01:33:19;;;;;;;1999.90;999.90;;;;;;;;;;5098396;28;20040;-89
2024/01/15 01:35:46;;;;;;;1999.90;999.90;;;;;;;;;;5091928;28;20051;-85
2024/01/15 01:38:14;;;;;;;1999.90;999.90;;;;;;;;;;5084637;28;20109;-85
2024/01/15 01:40:41;;;;;;;1999.90;999.90;;;;;;;;;;5076937;28;20044;-84
2024/01/15 01:43:07;;;;;;;1999.90;999.90;;;;;;;;;;5076349;28;20050;-85
2024/01/15 01:45:33;;;;;;;1999.90;999.90;;;;;;;;;;5081217;28;20104;-88
2024/01/15 01:48:01;;;;;;;1999.90;999.90;;;;;;;;;;5074490;28;20044;-84
2024/01/15 01:50:32;;;;;;;1999.90;999.90;;;;;;;;;;5073139;28;20055;-86
2024/01/15 01:53:00;;;;;;;1999.90;999.90;;;;;;;;;;5067549;28;20052;-85
2024/01/15 01:55:28;;;;;;;1999.90;999.90;;;;;;;;;;5077945;28;20123;-86
2024/01/15 01:57:55;;;;;;;1999.90;999.90;;;;;;;;;;5079258;28;20404;-84
2024/01/15 02:00:22;;;;;;;1999.90;999.90;;;;;;;;;;5078063;28;20135;-85
2024/01/15 02:02:48;;;;;;;1999.90;999.90;;;;;;;;;;5075307;28;20047;-85
2024/01/15 02:05:19;;;;;;;1999.90;999.90;;;;;;;;;;5077748;28;20490;-84
2024/01/15 02:07:46;;;;;;;1999.90;999.90;;;;;;;;;;5081555;28;20044;-85
2024/01/15 02:10:13;;;;;;;1999.90;999.90;;;;;;;;;;5073984;28;20044;-86
2024/01/15 02:12:40;;;;;;;1999.90;999.90;;;;;;;;;;5073561;28;20044;-86
2024/01/15 02:15:07;;;;;;;1999.90;999.90;;;;;;;;;;5077821;28;20055;-85
2024/01/15 02:17:34;;;;;;;1999.90;999.90;;;;;;;;;;5071911;28;20393;-90
2024/01/15 02:20:04;;;;;;;1999.90;999.90;;;;;;;;;;5073217;28;20056;-85
2024/01/15 02:22:31;;;;;;;1999.90;999.90;;;;;;;;;;5077025;28;20052;-85
2024/01/15 02:24:59;;;;;;;1999.90;999.90;;;;;;;;;;5079474;28;20045;-85
2024/01/15 02:27:25;;;;;;;1999.90;999.90;;;;;;;;;;5076844;28;20071;-85
2024/01/15 02:29:52;;;;;;;1999.90;999.90;;;;;;;;;;5070804;28;20041;-85
2024/01/15 02:32:18;;;;;;;1999.90;999.90;;;;;;;;;;5078307;28;20056;-85
2024/01/15 02:34:45;;;;;;;1999.90;999.90;;;;;;;;;;5080102;28;20050;-84
2024/01/15 02:37:11;;;;;;;1999.90;999.90;;;;;;;;;;5075773;28;20056;-87
2024/01/15 02:39:38;;;;;;;1999.90;999.90;;;;;;;;;;5084300;28;20044;-84
2024/01/15 02:42:06;;;;;;;1999.90;999.90;;;;;;;;;;5075336;28;20053;-85
2024/01/15 02:44:33;;;;;;;1999.90;999.90;;;;;;;;;;5070637;28;20051;-88
2024/01/15 02:46:59;;;;;;;1999.90;999.90;;;;;;;;;;5078773;28;20052;-85
2024/01/15 02:49:32;;;;;;;1999.90;999.90;;;;;;;;;;5070469;28;20053;-84
2024/01/15 02:51:59;;;;;;;1999.90;999.90;;;;;;;;;;5079149;28;20071;-86
2024/01/15 02:54:25;;;;;;;1999.90;999.90;;;;;;;;;;5080299;28;20044;-84
2024/01/15 02:56:52;;;;;;;1999.90;999.90;;;;;;;;;;5080205;28;20044;-85
2024/01/15 02:59:21;;;;;;;1999.90;999.90;;;;;;;;;;5084102;28;20071;-86
2024/01/15 03:01:47;;;;;;;1999.90;999.90;;;;;;;;;;5066326;28;20044;-84
2024/01/15 03:04:14;;;;;;;1999.90;999.90;;;;;;;;;;5073831;28;20105;-87
2024/01/15 03:06:40;;;;;;;1999.90;999.90;;;;;;;;;;5077749;28;20052;-84
2024/01/15 03:09:07;;;;;;;1999.90;999.90;;;;;;;;;;5074865;28;20058;-84
2024/01/15 03:11:38;;;;;;;1999.90;999.90;;;;;;;;;;5081270;28;20040;-85
2024/01/15 03:14:04;;;;;;;1999.90;999.90;;;;;;;;;;5072342;28;20051;-86
2024/01/15 03:16:32;;;;;;;1999.90;999.90;;;;;;;;;;5076038;28;20044;-85
2024/01/15 03:18:59;;;;;;;1999.90;999.90;;;;;;;;;;5073667;28;20484;-86
2024/01/15 03:21:25;;;;;;;1999.90;999.90;;;;;;;;;;5076165;28;20063;-85
2024/01/15 03:23:52;;;;;;;1999.90;999.90;;;;;;;;;;5082943;28;20059;-84
2024/01/15 03:26:19;;;;;;;1999.90;999.90;;;;;;;;;;5079013;28;20477;-86
2024/01/15 03:28:45;;;;;;;1999.90;999.90;;;;;;;;;;5073454;28;20036;-85
2024/01/15 03:31:12;;;;;;;1999.90;999.90;;;;;;;;;;5080632;28;20061;-85
2024/01/15 03:33:39;;;;;;;1999.90;999.90;;;;;;;;;;5079470;28;20071;-85
2024/01/15 03:36:07;;;;;;;1999.90;999.90;;;;;;;;;;5070197;28;20091;-84
2024/01/15 03:38:33;;;;;;;1999.90;999.90;;;;;;;;;;5069330;28;20055;-88
2024/01/15 03:41:00;;;;;;;1999.90;999.90;;;;;;;;;;5079305;28;20044;-84
2024/01/15 03:43:27;;;;;;;1999.90;999.90;;;;;;;;;;5079641;28;20054;-86
2024/01/15 03:45:54;;;;;;;1999.90;999.90;;;;;;;;;;5087784;28;20049;-86
2024/01/15 03:48:20;;;;;;;1999.90;999.90;;;;;;;;;;5074631;28;20482;-84
2024/01/15 03:51:01;;;;;;;1999.90;999.90;;;;;;;;;;5074812;28;20070;-85
2024/01/15 03:53:27;;;;;;;1999.90;999.90;;;;;;;;;;5080716;28;20050;-84
2024/01/15 03:55:54;;;;;;;1999.90;999.90;;;;;;;;;;5073849;28;20051;-87
2024/01/15 03:58:20;;;;;;;1999.90;999.90;;;;;;;;;;5074493;28;20051;-85
2024/01/15 04:00:47;;;;;;;1999.90;999.90;;;;;;;;;;5082203;28;20052;-85
2024/01/15 04:03:13;;;;;;;1999.90;999.90;;;;;;;;;;5074533;28;20135;-85
2024/01/15 04:05:40;;;;;;;1999.90;999.90;;;;;;;;;;5056412;28;20473;-85
2024/01/15 04:08:08;;;;;;;1999.90;999.90;;;;;;;;;;5052728;28;20045;-84
2024/01/15 04:10:34;;;;;;;1999.90;999.90;;;;;;;;;;5056135;28;20525;-85
2024/01/15 04:13:02;;;;;;;1999.90;999.90;;;;;;;;;;5056690;28;20053;-85
2024/01/15 04:15:28;;;;;;;1999.90;999.90;;;;;;;;;;5055001;28;20053;-85
2024/01/15 04:17:55;;;;;;;1999.90;999.90;;;;;;;;;;5060764;28;20045;-84
2024/01/15 04:20:22;;;;;;;1999.90;999.90;;;;;;;;;;5055145;28;20041;-87
2024/01/15 04:22:48;;;;;;;1999.90;999.90;;;;;;;;;;5048493;28;20049;-85
2024/01/15 04:25:16;;;;;;;1999.90;999.90;;;;;;;;;;5055458;28;20051;-85
2024/01/15 04:27:43;;;;;;;1999.90;999.90;;;;;;;;;;5034239;28;20045;-87
2024/01/15 04:30:10;;;;;;;1999.90;999.90;;;;;;;;;;5055497;28;20053;-85
2024/01/15 04:32:37;;;;;;;1999.90;999.90;;;;;;;;;;5057831;28;20052;-85
2024/01/15 04:35:04;;;;;;;1999.90;999.90;;;;;;;;;;5057477;28;20055;-86
2024/01/15 04:37:30;;;;;;;1999.90;999.90;;;;;;;;;;5057653;28;20438;-84
2024/01/15 04:39:57;;;;;;;1999.90;999.90;;;;;;;;;;5052914;28;20049;-84
2024/01/15 04:42:25;;;;;;;1999.90;999.90;;;;;;;;;;5045449;28;20555;-84
2024/01/15 04:44:51;;;;;;;1999.90;999.90;;;;;;;;;;5061658;28;20051;-84
2024/01/15 04:47:18;;;;;;;1999.90;999.90;;;;;;;;;;5056976;28;20049;-84
2024/01/15 04:49:54;;;;;;;1999.90;999.90;;;;;;;;;;5057400;28;20049;-85
2024/01/15 04:52:20;;;;;;;1999.90;999.90;;;;;;;;;;5054063;28;20497;-84
2024/01/15 04:54:47;;;;;;;1999.90;999.90;;;;;;;;;;5066785;28;20128;-84
2024/01/15 04:57:13;;;;;;;1999.90;999.90;;;;;;;;;;5058774;28;20051;-89
2024/01/15 04:59:41;;;;;;;1999.90;999.90;;;;;;;;;;5055221;28;20536;-85
2024/01/15 05:02:08;;;;;;;1999.90;999.90;;;;;;;;;;5058190;28;20144;-85
2024/01/15 05:04:34;;;;;;;1999.90;999.90;;;;;;;;;;5076484;28;20125;-85
2024/01/15 05:07:01;;;;;;;1999.90;999.90;;;;;;;;;;5077762;28;20055;-84
2024/01/15 05:09:28;;;;;;;1999.90;999.90;;;;;;;;;;5080658;28;20357;-85
2024/01/15 05:11:55;;;;;;;1999.90;999.90;;;;;;;;;;5072430;28;20441;-85
2024/01/15 05:14:21;;;;;;;1999.90;999.90;;;;;;;;;;5075424;28;20420;-86
2024/01/15 05:16:50;;;;;;;1999.90;999.90;;;;;;;;;;5073519;28;20048;-84
2024/01/15 05:19:22;;;;;;;1999.90;999.90;;;;;;;;;;5078714;28;20080;-85
2024/01/15 05:21:48;;;;;;;1999.90;999.90;;;;;;;;;;5076553;28;20045;-84
2024/01/15 05:24:15;;;;;;;1999.90;999.90;;;;;;;;;;5067632;28;20049;-89
2024/01/15 05:26:41;;;;;;;1999.90;999.90;;;;;;;;;;5081737;28;20045;-86
2024/01/15 05:29:08;;;;;;;1999.90;999.90;;;;;;;;;;5077770;28;20049;-85
2024/01/15 05:31:34;;;;;;;1999.90;999.90;;;;;;;;;;5071197;28;20041;-85
2024/01/15 05:34:02;;;;;;;1999.90;999.90;;;;;;;;;;5081037;28;20051;-85
2024/01/15 05:36:29;;;;;;;1999.90;999.90;;;;;;;;;;5077896;28;20049;-86
2024/01/15 05:38:55;;;;;;;1999.90;999.90;;;;;;;;;;5071364;28;20051;-85
2024/01/15 05:41:22;;;;;;;1999.90;999.90;;;;;;;;;;5077741;28;20144;-85
2024/01/15 05:43:48;;;;;;;1999.90;999.90;;;;;;;;;;5077845;28;20047;-85
2024/01/15 05:46:15;;;;;;;1999.90;999.90;;;;;;;;;;5074358;28;20131;-86
2024/01/15 05:48:42;;;;;;;1999.90;999.90;;;;;;;;;;5077198;28;20056;-86
2024/01/15 05:51:11;;;;;;;1999.90;999.90;;;;;;;;;;5063644;28;20059;-85
2024/01/15 05:53:40;;;;;;;1999.90;999.90;;;;;;;;;;5084491;28;20059;-86
2024/01/15 05:56:07;;;;;;;1999.90;999.90;;;;;;;;;;5076853;28;20056;-86
2024/01/15 05:58:33;;;;;;;1999.90;999.90;;;;;;;;;;5074274;28;20051;-85
2024/01/15 06:01:03;;;;;;;1999.90;999.90;;;;;;;;;;5069560;28;20052;-86
2024/01/15 06:03:29;;;;;;;1999.90;999.90;;;;;;;;;;5080940;28;20066;-86
2024/01/15 06:05:56;;;;;;;1999.90;999.90;;;;;;;;;;5086740;28;20055;-85
2024/01/15 06:08:24;;;;;;;1999.90;999.90;;;;;;;;;;5072240;28;20044;-87
2024/01/15 06:10:50;;;;;;;1999.90;999.90;;;;;;;;;;5080571;28;20540;-87
2024/01/15 06:13:17;;;;;;;1999.90;999.90;;;;;;;;;;5076122;28;20532;-88
2024/01/15 06:15:43;;;;;;;1999.90;999.90;;;;;;;;;;5078393;28;20044;-85
2024/01/15 06:18:10;;;;;;;1999.90;999.90;;;;;;;;;;5087221;28;20056;-87
2024/01/15 06:20:43;;;;;;;1999.90;999.90;;;;;;;;;;5075741;28;20059;-86
2024/01/15 06:23:09;;;;;;;1999.90;999.90;;;;;;;;;;5065922;28;20045;-87
2024/01/15 06:25:37;;;;;;;1999.90;999.90;;;;;;;;;;5078642;28;20041;-85
2024/01/15 06:28:05;;;;;;;1999.90;999.90;;;;;;;;;;5084150;28;20040;-86
2024/01/15 06:30:31;;;;;;;1999.90;999.90;;;;;;;;;;5078168;28;20048;-86
2024/01/15 06:32:58;;;;;;;1999.90;999.90;;;;;;;;;;5081324;28;20049;-86
2024/01/15 06:35:24;;;;;;;1999.90;999.90;;;;;;;;;;5091863;28;20055;-88
2024/01/15 06:37:51;;;;;;;1999.90;999.90;;;;;;;;;;5085613;28;20492;-85
2024/01/15 06:40:17;;;;;;;1999.90;999.90;;;;;;;;;;5081826;28;20131;-86
2024/01/15 06:42:45;;;;;;;1999.90;999.90;;;;;;;;;;5089324;28;20052;-87
2024/01/15 06:45:12;;;;;;;1999.90;999.90;;;;;;;;;;5076956;28;20515;-86
2024/01/15 06:47:38;;;;;;;1999.90;999.90;;;;;;;;;;5082193;28;20044;-86
2024/01/15 06:50:11;;;;;;;1999.90;999.90;;;;;;;;;;5087612;28;20101;-88
2024/01/15 06:52:38;;;;;;;1999.90;999.90;;;;;;;;;;5099945;28;20494;-90
2024/01/15 06:55:05;;;;;;;1999.90;999.90;;;;;;;;;;5082407;28;20056;-88
2024/01/15 06:57:32;;;;;;;1999.90;999.90;;;;;;;;;;5083500;28;20484;-87
2024/01/15 07:00:00;;;;;;;1999.90;999.90;;;;;;;;;;5084028;28;20118;-88
2024/01/15 07:02:27;;;;;;;1999.90;999.90;;;;;;;;;;5083042;28;20048;-86
2024/01/15 07:04:53;;;;;;;1999.90;999.90;;;;;;;;;;5063768;28;20057;-87
2024/01/15 07:07:20;;;;;;;1999.90;999.90;;;;;;;;;;5075315;28;20045;-88
2024/01/15 07:09:46;;;;;;;1999.90;999.90;;;;;;;;;;5076332;28;20049;-86
2024/01/15 07:12:13;;;;;;;1999.90;999.90;;;;;;;;;;5082625;28;20066;-86
2024/01/15 07:14:39;;;;;;;1999.90;999.90;;;;;;;;;;5092681;28;20052;-86
2024/01/15 07:17:07;;;;;;;1999.90;999.90;;;;;;;;;;5078547;28;20044;-86
2024/01/15 07:19:34;;;;;;;1999.90;999.90;;;;;;;;;;5075316;28;20040;-89
2024/01/15 07:22:00;;;;;;;1999.90;999.90;;;;;;;;;;5075387;28;20052;-86
2024/01/15 07:24:27;;;;;;;1999.90;999.90;;;;;;;;;;5077933;28;20049;-87
2024/01/15 07:26:53;;;;;;;1999.90;999.90;;;;;;;;;;5081891;28;20051;-87
2024/01/15 07:29:20;;;;;;;1999.90;999.90;;;;;;;;;;5084738;28;20048;-86
2024/01/15 07:31:49;;;;;;;1999.90;999.90;;;;;;;;;;5079672;28;20396;-86
2024/01/15 07:34:17;;;;;;;1999.90;999.90;;;;;;;;;;5086141;28;20424;-88
2024/01/15 07:36:45;;;;;;;1999.90;999.90;;;;;;;;;;5078777;28;20048;-87
2024/01/15 07:39:12;;;;;;;1999.90;999.90;;;;;;;;;;5072382;28;20099;-86
2024/01/15 07:41:38;;;;;;;1999.90;999.90;;;;;;;;;;5070827;28;20052;-88
2024/01/15 07:44:05;;;;;;;1999.90;999.90;;;;;;;;;;5078886;28;20052;-87
2024/01/15 07:46:31;;;;;;;1999.90;999.90;;;;;;;;;;5078716;28;20101;-89
2024/01/15 07:49:18;;;;;;;1999.90;999.90;;;;;;;;;;5075871;28;20095;-86
2024/01/15 07:51:45;;;;;;;1999.90;999.90;;;;;;;;;;5062055;28;20052;-86
2024/01/15 07:54:12;;;;;;;1999.90;999.90;;;;;;;;;;5071347;28;20084;-87
2024/01/15 07:56:54;;;;;;;1999.90;999.90;;;;;;;;;;5082055;28;20052;-87
2024/01/15 07:59:20;;;;;;;1999.90;999.90;;;;;;;;;;5083771;28;20047;-90
2024/01/15 08:01:47;;;;;;;1999.90;999.90;;;;;;;;;;5090220;28;20060;-86
2024/01/15 08:04:13;;;;;;;1999.90;999.90;;;;;;;;;;5078584;28;20059;-87
2024/01/15 08:06:41;;;;;;;1999.90;999.90;;;;;;;;;;5075660;28;20070;-87
2024/01/15 08:09:08;;;;;;;1999.90;999.90;;;;;;;;;;5073105;28;20149;-89
2024/01/15 08:11:35;;;;;;;1999.90;999.90;;;;;;;;;;5076063;28;20166;-87
2024/01/15 08:14:01;;;;;;;1999.90;999.90;;;;;;;;;;5065946;28;20049;-88
2024/01/15 08:16:28;;;;;;;1999.90;999.90;;;;;;;;;;5077018;28;20055;-87
2024/01/15 08:19:03;;;;;;;1999.90;999.90;;;;;;;;;;5080594;28;20056;-91
2024/01/15 08:21:31;;;;;;;1999.90;999.90;;;;;;;;;;5072968;28;20049;-87
2024/01/15 08:23:59;;;;;;;1999.90;999.90;;;;;;;;;;5080963;28;20100;-86
2024/01/15 08:26:26;;;;;;;1999.90;999.90;;;;;;;;;;5074245;28;20045;-87
2024/01/15 08:28:52;;;;;;;1999.90;999.90;;;;;;;;;;5080204;28;20048;-86
2024/01/15 08:31:19;;;;;;;1999.90;999.90;;;;;;;;;;5080331;28;20059;-86
2024/01/15 08:33:45;;;;;;;1999.90;999.90;;;;;;;;;;5074832;28;20045;-87
2024/01/15 08:36:12;;;;;;;1999.90;999.90;;;;;;;;;;5081986;28;20059;-87
2024/01/15 08:38:39;;;;;;;1999.90;999.90;;;;;;;;;;5077286;28;20064;-86
2024/01/15 08:41:08;;;;;;;1999.90;999.90;;;;;;;;;;5066779;28;20404;-87
2024/01/15 08:43:34;;;;;;;1999.90;999.90;;;;;;;;;;5083025;28;20139;-88
2024/01/15 08:46:01;;;;;;;1999.90;999.90;;;;;;;;;;5088912;28;20052;-87
2024/01/15 08:48:28;;;;;;;1999.90;999.90;;;;;;;;;;5075182;28;20056;-88
2024/01/15 08:50:56;;;;;;;1999.90;999.90;;;;;;;;;;5076341;28;20048;-89
2024/01/15 08:53:22;;;;;;;1999.90;999.90;;;;;;;;;;5072727;28;20091;-89
2024/01/15 08:55:49;;;;;;;1999.90;999.90;;;;;;;;;;5080556;28;20056;-87
2024/01/15 08:58:17;;;;;;;1999.90;999.90;;;;;;;;;;5070004;28;20119;-86
2024/01/15 09:00:45;;;;;;;1999.90;999.90;;;;;;;;;;5041442;28;20466;-87
2024/01/15 09:03:11;;;;;;;1999.90;999.90;;;;;;;;;;5068508;28;20492;-87
2024/01/15 09:05:38;;;;;;;1999.90;999.90;;;;;;;;;;5057752;28;20048;-87
2024/01/15 09:08:05;;;;;;;1999.90;999.90;;;;;;;;;;5056128;28;20067;-88
2024/01/15 09:10:32;;;;;;;1999.90;999.90;;;;;;;;;;5052383;28;20048;-88
2024/01/15 09:12:58;;;;;;;1999.90;999.90;;;;;;;;;;5049092;28;20049;-88
2024/01/15 09:15:27;;;;;;;1999.90;999.90;;;;;;;;;;5056411;28;20044;-87
2024/01/15 09:17:54;;;;;;;1999.90;999.90;;;;;;;;;;5053146;28;20099;-87
2024/01/15 09:20:20;;;;;;;1999.90;999.90;;;;;;;;;;5062549;28;20045;-87
2024/01/15 09:22:47;;;;;;;1999.90;999.90;;;;;;;;;;5048181;28;20052;-86
2024/01/15 09:25:14;;;;;;;1999.90;999.90;;;;;;;;;;5067289;28;20128;-87
2024/01/15 09:27:40;;;;;;;1999.90;999.90;;;;;;;;;;5061430;28;20053;-87
2024/01/15 09:30:08;;;;;;;1999.90;999.90;;;;;;;;;;5056145;28;20048;-86
2024/01/15 09:32:36;;;;;;;1999.90;999.90;;;;;;;;;;5056814;28;20055;-87
2024/01/15 09:35:02;;;;;;;1999.90;999.90;;;;;;;;;;5050664;28;20408;-86
2024/01/15 09:37:29;;;;;;;1999.90;999.90;;;;;;;;;;5053784;28;20048;-88
2024/01/15 09:39:56;;;;;;;1999.90;999.90;;;;;;;;;;5054621;28;20045;-88
2024/01/15 09:42:23;;;;;;;1999.90;999.90;;;;;;;;;;5057739;28;20103;-87
2024/01/15 09:44:49;;;;;;;1999.90;999.90;;;;;;;;;;5053985;28;20389;-86
2024/01/15 09:47:17;;;;;;;1999.90;999.90;;;;;;;;;;5056992;28;20412;-87
2024/01/15 09:49:50;;;;;;;1999.90;999.90;;;;;;;;;;5056172;28;20447;-87
2024/01/15 09:52:17;;;;;;;1999.90;999.90;;;;;;;;;;5071086;28;20485;-86
2024/01/15 09:54:44;;;;;;;1999.90;999.90;;;;;;;;;;5063142;28;20045;-87
2024/01/15 09:57:11;;;;;;;1999.90;999.90;;;;;;;;;;5057546;28;20049;-88
2024/01/15 09:59:38;;;;;;;1999.90;999.90;;;;;;;;;;5057108;28;20062;-86
2024/01/15 10:02:06;;;;;;;1999.90;999.90;;;;;;;;;;5053937;28;20072;-86
2024/01/15 10:04:32;;;;;;;1999.90;999.90;;;;;;;;;;5057530;28;20064;-87
2024/01/15 10:07:01;;;;;;;1999.90;999.90;;;;;;;;;;5061393;28;20044;-88
2024/01/15 10:09:29;;;;;;;1999.90;999.90;;;;;;;;;;5055089;28;20044;-87
2024/01/15 10:11:55;;;;;;;1999.90;999.90;;;;;;;;;;5053982;28;20115;-88
2024/01/15 10:14:22;;;;;;;1999.90;999.90;;;;;;;;;;5060468;28;20137;-88
2024/01/15 10:16:48;;;;;;;1999.90;999.90;;;;;;;;;;5058160;28;20071;-86
2024/01/15 10:19:24;;;;;;;1999.90;999.90;;;;;;;;;;5053709;28;20045;-87
2024/01/15 10:21:50;;;;;;;1999.90;999.90;;;;;;;;;;5056688;28;20053;-87
2024/01/15 10:24:18;;;;;;;1999.90;999.90;;;;;;;;;;5056965;28;20494;-88
2024/01/15 10:26:45;;;;;;;1999.90;999.90;;;;;;;;;;5054172;28;20053;-87
2024/01/15 10:29:11;;;;;;;1999.90;999.90;;;;;;;;;;5056947;28;20056;-86
2024/01/15 10:31:38;;;;;;;1999.90;999.90;;;;;;;;;;5059072;28;20053;-86
2024/01/15 10:34:12;;;;;;;1999.90;999.90;;;;;;;;;;5050648;28;20061;-87
2024/01/15 10:36:40;;;;;;;1999.90;999.90;;;;;;;;;;5053583;28;20091;-87
2024/01/15 10:39:07;;;;;;;1999.90;999.90;;;;;;;;;;5054974;28;20041;-88
2024/01/15 10:41:35;;;;;;;1999.90;999.90;;;;;;;;;;5050800;28;20052;-88
2024/01/15 10:44:02;;;;;;;1999.90;999.90;;;;;;;;;;5054281;28;20052;-90
2024/01/15 10:46:28;;;;;;;1999.90;999.90;;;;;;;;;;5060678;28;20041;-87
2024/01/15 10:48:55;;;;;;;1999.90;999.90;;;;;;;;;;5046327;28;20048;-87
2024/01/15 10:51:22;;;;;;;1999.90;999.90;;;;;;;;;;5051266;28;20045;-87
2024/01/15 10:53:49;;;;;;;1999.90;999.90;;;;;;;;;;5059287;28;20077;-87
2024/01/15 10:56:16;;;;;;;1999.90;999.90;;;;;;;;;;5061988;28;20055;-86
2024/01/15 10:58:44;;;;;;;1999.90;999.90;;;;;;;;;;5062057;28;20052;-87
2024/01/15 11:01:10;;;;;;;1999.90;999.90;;;;;;;;;;5057373;28;20068;-87
2024/01/15 11:03:37;;;;;;;1999.90;999.90;;;;;;;;;;5059283;28;20056;-86
2024/01/15 11:06:04;;;;;;;1999.90;999.90;;;;;;;;;;5075790;28;20512;-87
2024/01/15 11:08:31;;;;;;;1999.90;999.90;;;;;;;;;;5074016;28;20044;-86
2024/01/15 11:10:57;;;;;;;1999.90;999.90;;;;;;;;;;5076644;28;20485;-85
2024/01/15 11:13:41;;;;;;;1999.90;999.90;;;;;;;;;;5076214;28;20051;-86
2024/01/15 11:16:11;;;;;;;1999.90;999.90;;;;;;;;;;5076116;28;20052;-84
2024/01/15 11:18:39;;;;;;;1999.90;999.90;;;;;;;;;;5077219;28;20106;-86
2024/01/15 11:21:29;;;;;;;1999.90;999.90;;;;;;;;;;5066350;28;20044;-84
2024/01/15 11:23:57;;;;;;;1999.90;999.90;;;;;;;;;;5075622;28;20129;-87
2024/01/15 11:26:36;;;;;;;1999.90;999.90;;;;;;;;;;5073550;28;20396;-86
2024/01/15 11:29:05;;;;;;;1999.90;999.90;;;;;;;;;;5075404;28;20048;-86
2024/01/15 11:32:03;;;;;;;1999.90;999.90;;;;;;;;;;5083875;28;20412;-86
2024/01/15 11:34:57;;;;;;;1999.90;999.90;;;;;;;;;;5092686;28;20071;-89
2024/01/15 11:37:24;;;;;;;1999.90;999.90;;;;;;;;;;5068186;28;20106;-84
2024/01/15 11:39:53;;;;;;;1999.90;999.90;;;;;;;;;;5075593;28;20133;-84
2024/01/15 11:42:21;;;;;;;1999.90;999.90;;;;;;;;;;5078091;28;20090;-86
2024/01/15 11:44:47;;;;;;;1999.90;999.90;;;;;;;;;;5081382;28;20040;-85
2024/01/15 11:47:15;;;;;;;1999.90;999.90;;;;;;;;;;5064563;28;20044;-86
2024/01/15 11:50:05;;;;;;;1999.90;999.90;;;;;;;;;;5087292;28;20052;-86
2024/01/15 11:52:34;;;;;;;1999.90;999.90;;;;;;;;;;5063701;28;20060;-86
2024/01/15 11:55:04;;;;;;;1999.90;999.90;;;;;;;;;;5065576;28;20053;-85
2024/01/15 11:57:38;;;;;;;1999.90;999.90;;;;;;;;;;5066337;28;20052;-86
2024/01/15 12:00:06;;;;;;;1999.90;999.90;;;;;;;;;;5070248;28;20044;-85
2024/01/15 12:02:34;;;;;;;1999.90;999.90;;;;;;;;;;5074142;28;20048;-87
2024/01/15 12:05:00;;;;;;;1999.90;999.90;;;;;;;;;;5071328;28;20064;-87
2024/01/15 12:07:27;;;;;;;1999.90;999.90;;;;;;;;;;5072874;28;20041;-85
2024/01/15 12:09:53;;;;;;;1999.90;999.90;;;;;;;;;;5072468;28;20057;-87
2024/01/15 12:12:25;;;;;;;1999.90;999.90;;;;;;;;;;5067853;28;20041;-86
2024/01/15 12:14:52;;;;;;;1999.90;999.90;;;;;;;;;;5078992;28;20048;-85
2024/01/15 12:17:18;;;;;;;1999.90;999.90;;;;;;;;;;5080239;28;20508;-86
2024/01/15 12:19:50;;;;;;;1999.90;999.90;;;;;;;;;;5073612;28;20051;-87
2024/01/15 12:22:16;;;;;;;1999.90;999.90;;;;;;;;;;5080121;28;20050;-87
2024/01/15 12:24:43;;;;;;;1999.90;999.90;;;;;;;;;;5071992;28;20053;-85
2024/01/15 12:27:10;;;;;;;1999.90;999.90;;;;;;;;;;5075907;28;20052;-86
2024/01/15 12:29:36;;;;;;;1999.90;999.90;;;;;;;;;;5068061;28;20049;-86
2024/01/15 12:32:03;;;;;;;1999.90;999.90;;;;;;;;;;5070639;28;20071;-86
2024/01/15 12:34:30;;;;;;;1999.90;999.90;;;;;;;;;;5075040;28;20060;-87
2024/01/15 12:36:59;;;;;;;1999.90;999.90;;;;;;;;;;5071181;28;20102;-86
2024/01/15 12:39:25;;;;;;;1999.90;999.90;;;;;;;;;;5075445;28;20048;-86
2024/01/15 12:41:52;;;;;;;1999.90;999.90;;;;;;;;;;5073187;28;20048;-87
2024/01/15 12:44:18;;;;;;;1999.90;999.90;;;;;;;;;;5071305;28;20053;-85
2024/01/15 12:46:45;;;;;;;1999.90;999.90;;;;;;;;;;5073081;28;20048;-85
2024/01/15 12:49:13;;;;;;;1999.90;999.90;;;;;;;;;;5075560;28;20064;-88
2024/01/15 12:51:40;;;;;;;1999.90;999.90;;;;;;;;;;5075438;28;20052;-86
2024/01/15 12:54:08;;;;;;;1999.90;999.90;;;;;;;;;;5076044;28;20048;-86
2024/01/15 12:56:35;;;;;;;1999.90;999.90;;;;;;;;;;5070723;28;20704;-85
2024/01/15 12:59:01;;;;;;;1999.90;999.90;;;;;;;;;;5085468;28;20044;-87
2024/01/15 13:01:28;;;;;;;1999.90;999.90;;;;;;;;;;5078087;28;20044;-84
2024/01/15 13:03:54;;;;;;;1999.90;999.90;;;;;;;;;;5059048;28;20394;-86
2024/01/15 13:06:21;;;;;;;1999.90;999.90;;;;;;;;;;5060092;28;20056;-85
2024/01/15 13:08:48;;;;;;;1999.90;999.90;;;;;;;;;;5056667;28;20611;-85
2024/01/15 13:11:16;;;;;;;1999.90;999.90;;;;;;;;;;5051080;28;20102;-86
2024/01/15 13:13:42;;;;;;;1999.90;999.90;;;;;;;;;;5052174;28;20048;-85
2024/01/15 13:16:09;;;;;;;1999.90;999.90;;;;;;;;;;5054206;28;20713;-84
2024/01/15 13:18:36;;;;;;;1999.90;999.90;;;;;;;;;;5048229;28;20084;-84
2024/01/15 13:21:12;;;;;;;1999.90;999.90;;;;;;;;;;5045847;28;20057;-84
2024/01/15 13:23:39;;;;;;;1999.90;999.90;;;;;;;;;;5058448;28;20485;-83
2024/01/15 13:26:06;;;;;;;1999.90;999.90;;;;;;;;;;5055030;28;20052;-84
2024/01/15 13:28:35;;;;;;;1999.90;999.90;;;;;;;;;;5052423;28;20048;-83
2024/01/15 13:31:02;;;;;;;1999.90;999.90;;;;;;;;;;5057638;28;20053;-83
2024/01/15 13:33:28;;;;;;;1999.90;999.90;;;;;;;;;;5058942;28;20095;-83
2024/01/15 13:35:55;;;;;;;1999.90;999.90;;;;;;;;;;5055164;28;20057;-83
2024/01/15 13:38:21;;;;;;;1999.90;999.90;;;;;;;;;;5050580;28;20053;-84
2024/01/15 13:40:48;;;;;;;1999.90;999.90;;;;;;;;;;5065310;28;20045;-83
2024/01/15 13:43:14;;;;;;;1999.90;999.90;;;;;;;;;;5049863;28;20540;-84